Time;durP1;ratioP1;P1;durP2;ratioP2;P2;SDS_P1;SDS_P2;PMS_P1;PMS_P2;Temp;Humidity;BMP_temperature;BMP_pressure;BME280_temperature;BME280_humidity;BME280_pressure;Samples;Min_cycle;Max_cycle;Signal;HPM_P1;HPM_P2
2023/05/25 00:02:03;;;;;;;9.98;5.18;;;9.90;99.90;;;;;;5155287;27;20042;-66
2023/05/25 00:04:33;;;;;;;7.57;5.20;;;9.80;99.90;;;;;;5155304;27;20130;-66
2023/05/25 00:06:59;;;;;;;10.90;5.78;;;9.70;99.90;;;;;;5154759;27;20085;-65
2023/05/25 00:09:25;;;;;;;9.30;5.47;;;9.50;99.90;;;;;;5155394;27;20138;-66
2023/05/25 00:11:51;;;;;;;9.13;6.28;;;9.50;99.90;;;;;;5155324;27;20081;-65
2023/05/25 00:14:17;;;;;;;9.75;5.40;;;9.50;99.90;;;;;;5154666;27;20160;-67
2023/05/25 00:16:44;;;;;;;10.23;5.70;;;9.50;99.90;;;;;;5154724;27;20046;-66
2023/05/25 00:19:10;;;;;;;5.35;4.32;;;9.50;99.90;;;;;;5155082;27;20117;-66
2023/05/25 00:21:38;;;;;;;9.23;5.45;;;9.50;99.90;;;;;;5154656;27;20160;-66
2023/05/25 00:24:05;;;;;;;9.35;5.97;;;9.50;99.90;;;;;;5136368;27;20111;-66
2023/05/25 00:26:30;;;;;;;8.80;4.85;;;9.50;99.90;;;;;;5154563;27;20410;-68
2023/05/25 00:28:59;;;;;;;9.98;5.28;;;9.40;99.90;;;;;;5136040;27;20035;-66
2023/05/25 00:31:25;;;;;;;10.00;5.95;;;9.30;99.90;;;;;;5154492;27;20443;-68
2023/05/25 00:33:50;;;;;;;7.65;4.10;;;9.30;99.90;;;;;;5154497;27;20039;-66
2023/05/25 00:36:16;;;;;;;9.57;6.05;;;9.20;99.90;;;;;;5154910;27;20047;-67
2023/05/25 00:38:42;;;;;;;8.82;4.63;;;9.20;99.90;;;;;;5135946;27;20137;-65
2023/05/25 00:41:07;;;;;;;7.60;4.57;;;9.20;99.90;;;;;;5154556;27;20050;-66
2023/05/25 00:43:33;;;;;;;9.13;5.30;;;9.20;99.90;;;;;;5154198;27;20530;-66
2023/05/25 00:45:59;;;;;;;10.88;5.57;;;9.20;99.90;;;;;;5136201;27;20050;-66
2023/05/25 00:48:25;;;;;;;7.38;4.75;;;9.10;99.90;;;;;;5154289;27;20034;-66
2023/05/25 00:50:58;;;;;;;12.93;6.07;;;8.90;99.90;;;;;;5153954;27;20054;-66
2023/05/25 00:53:24;;;;;;;12.90;5.72;;;8.90;99.90;;;;;;5154138;27;20039;-66
2023/05/25 00:56:07;;;;;;;12.30;6.03;;;8.90;99.90;;;;;;5153917;27;20050;-67
2023/05/25 00:58:34;;;;;;;7.78;5.63;;;9.00;99.90;;;;;;5154066;27;20114;-67
2023/05/25 01:01:02;;;;;;;8.88;5.03;;;9.00;99.90;;;;;;5154003;27;20047;-66
2023/05/25 01:03:36;;;;;;;11.55;5.90;;;9.00;99.90;;;;;;5136447;27;20118;-66
2023/05/25 01:06:06;;;;;;;6.80;5.28;;;9.00;99.90;;;;;;5136321;27;20051;-68
2023/05/25 01:08:34;;;;;;;9.85;6.03;;;9.00;99.90;;;;;;5153772;27;20042;-66
2023/05/25 01:11:03;;;;;;;9.90;6.22;;;9.00;99.90;;;;;;5154085;27;20054;-66
2023/05/25 01:13:29;;;;;;;12.57;7.20;;;9.00;99.90;;;;;;5153954;27;20051;-66
2023/05/25 01:15:55;;;;;;;9.57;6.47;;;9.10;99.90;;;;;;5135159;27;20481;-66
2023/05/25 01:18:21;;;;;;;9.88;6.53;;;9.10;99.90;;;;;;5155769;27;20050;-67
2023/05/25 01:21:16;;;;;;;12.55;7.25;;;9.10;99.90;;;;;;5139546;27;20547;-67
2023/05/25 01:24:10;;;;;;;14.10;6.55;;;9.10;99.90;;;;;;5158184;27;20047;-66
2023/05/25 01:26:47;;;;;;;12.00;6.82;;;9.20;99.90;;;;;;5158132;27;20111;-66
2023/05/25 01:29:15;;;;;;;9.18;6.07;;;9.20;99.90;;;;;;5158448;27;20142;-66
2023/05/25 01:31:41;;;;;;;12.63;7.95;;;9.10;99.90;;;;;;5139939;27;20046;-67
2023/05/25 01:34:08;;;;;;;11.50;7.68;;;9.10;99.90;;;;;;5157612;27;20097;-66
2023/05/25 01:36:34;;;;;;;14.32;6.82;;;9.10;99.90;;;;;;5158214;27;20047;-66
2023/05/25 01:38:59;;;;;;;9.85;6.43;;;9.00;99.90;;;;;;5158038;27;20356;-66
2023/05/25 01:41:25;;;;;;;9.88;6.78;;;9.00;99.90;;;;;;5139458;27;20062;-66
2023/05/25 01:43:52;;;;;;;13.45;7.60;;;9.00;99.90;;;;;;5157625;27;20085;-66
2023/05/25 01:46:38;;;;;;;11.25;7.20;;;9.00;99.90;;;;;;5157448;27;20115;-68
2023/05/25 01:49:33;;;;;;;11.90;7.13;;;8.90;99.90;;;;;;5158410;27;20061;-67
2023/05/25 01:52:25;;;;;;;11.60;7.03;;;9.00;99.90;;;;;;5139110;27;20042;-67
2023/05/25 01:54:56;;;;;;;11.02;8.40;;;8.90;99.90;;;;;;5157469;27;20119;-66
2023/05/25 01:57:23;;;;;;;17.42;8.85;;;9.00;99.90;;;;;;5122628;27;20485;-67
2023/05/25 01:59:51;;;;;;;11.90;8.00;;;9.00;99.90;;;;;;5156952;27;20057;-67
2023/05/25 02:02:18;;;;;;;15.82;7.47;;;9.10;99.90;;;;;;5138885;27;20061;-68
2023/05/25 02:04:44;;;;;;;11.80;7.80;;;9.10;99.90;;;;;;5138793;27;20039;-66
2023/05/25 02:07:10;;;;;;;10.80;7.60;;;9.00;99.90;;;;;;5157371;27;20054;-68
2023/05/25 02:09:36;;;;;;;8.23;7.00;;;9.00;99.90;;;;;;5157731;27;20388;-66
2023/05/25 02:12:02;;;;;;;11.15;7.22;;;9.00;99.90;;;;;;5157367;27;20522;-66
2023/05/25 02:14:28;;;;;;;6.90;6.10;;;9.10;99.90;;;;;;5156669;27;20047;-66
2023/05/25 02:16:54;;;;;;;12.40;8.07;;;9.00;99.90;;;;;;5156929;27;20039;-66
2023/05/25 02:19:20;;;;;;;11.32;6.88;;;9.00;99.90;;;;;;5157440;27;20047;-67
2023/05/25 02:21:45;;;;;;;12.88;8.02;;;9.00;99.90;;;;;;5157263;27;20066;-68
2023/05/25 02:24:11;;;;;;;12.32;7.80;;;9.00;99.90;;;;;;5157261;27;20519;-66
2023/05/25 02:26:38;;;;;;;10.30;6.50;;;9.00;99.90;;;;;;5157332;27;20089;-66
2023/05/25 02:29:04;;;;;;;11.48;8.20;;;9.00;99.90;;;;;;5156216;27;20070;-66
2023/05/25 02:31:30;;;;;;;11.73;8.23;;;9.00;99.90;;;;;;5138006;27;20086;-66
2023/05/25 02:33:56;;;;;;;12.68;7.45;;;9.00;99.90;;;;;;5156659;27;20093;-67
2023/05/25 02:36:22;;;;;;;13.00;8.10;;;9.00;99.90;;;;;;5156492;27;20086;-66
2023/05/25 02:38:51;;;;;;;13.57;8.05;;;8.90;99.90;;;;;;5156626;27;20042;-67
2023/05/25 02:41:20;;;;;;;13.68;7.10;;;8.90;99.90;;;;;;5138154;27;20467;-67
2023/05/25 02:43:46;;;;;;;12.25;7.68;;;8.90;99.90;;;;;;5156574;27;20487;-66
2023/05/25 02:46:11;;;;;;;14.30;8.45;;;8.90;99.90;;;;;;5156349;27;20134;-66
2023/05/25 02:48:37;;;;;;;10.55;7.53;;;8.80;99.90;;;;;;5138361;27;20130;-66
2023/05/25 02:51:03;;;;;;;9.80;6.20;;;8.80;99.90;;;;;;5156108;27;20069;-66
2023/05/25 02:53:29;;;;;;;13.35;7.93;;;8.70;99.90;;;;;;5156575;27;20101;-66
2023/05/25 02:55:55;;;;;;;9.90;6.18;;;8.70;99.90;;;;;;5156552;27;20046;-66
2023/05/25 02:58:21;;;;;;;9.65;6.65;;;8.70;99.90;;;;;;5156689;27;20482;-67
2023/05/25 03:00:48;;;;;;;12.02;6.53;;;8.70;99.90;;;;;;5156266;27;20050;-66
2023/05/25 03:03:14;;;;;;;13.63;7.35;;;8.60;99.90;;;;;;5156230;27;20050;-67
2023/05/25 03:05:39;;;;;;;14.07;7.68;;;8.60;99.90;;;;;;5156131;27;20130;-67
2023/05/25 03:08:05;;;;;;;10.18;6.22;;;8.40;99.90;;;;;;5156085;27;20034;-67
2023/05/25 03:10:31;;;;;;;10.38;6.00;;;8.40;99.90;;;;;;5156072;27;20452;-66
2023/05/25 03:12:57;;;;;;;8.60;6.97;;;8.20;99.90;;;;;;5155849;27;20038;-66
2023/05/25 03:15:22;;;;;;;11.05;6.32;;;8.20;99.90;;;;;;5155849;27;20051;-67
2023/05/25 03:17:49;;;;;;;11.50;5.70;;;8.00;99.90;;;;;;5155818;27;20051;-66
2023/05/25 03:20:15;;;;;;;11.15;6.18;;;8.80;99.90;;;;;;5137499;27;20042;-66
2023/05/25 03:22:42;;;;;;;9.98;6.00;;;8.00;99.90;;;;;;5155755;27;20042;-67
2023/05/25 03:25:11;;;;;;;13.57;7.07;;;8.10;99.90;;;;;;5155712;27;20050;-66
2023/05/25 03:27:37;;;;;;;10.63;7.22;;;8.10;99.90;;;;;;5156101;27;20053;-66
2023/05/25 03:30:03;;;;;;;9.85;6.50;;;8.20;99.90;;;;;;5155878;27;20049;-66
2023/05/25 03:32:29;;;;;;;10.95;6.60;;;8.30;99.90;;;;;;5156016;27;20096;-66
2023/05/25 03:34:55;;;;;;;13.15;8.95;;;8.30;99.90;;;;;;5155607;27;20137;-66
2023/05/25 03:37:21;;;;;;;13.57;8.68;;;8.30;99.90;;;;;;5155923;27;20517;-65
2023/05/25 03:39:46;;;;;;;16.73;9.10;;;8.40;99.90;;;;;;5155110;27;20043;-68
2023/05/25 03:42:12;;;;;;;10.20;6.82;;;8.40;99.90;;;;;;5136933;27;20042;-66
2023/05/25 03:44:38;;;;;;;14.27;7.70;;;8.40;99.90;;;;;;5155229;27;20158;-66
2023/05/25 03:47:03;;;;;;;14.63;8.18;;;8.40;99.90;;;;;;5155226;27;20080;-66
2023/05/25 03:49:31;;;;;;;11.95;9.10;;;8.40;99.90;;;;;;5155245;27;20093;-66
2023/05/25 03:51:59;;;;;;;15.95;8.88;;;8.50;99.90;;;;;;5155250;27;20057;-66
2023/05/25 03:54:24;;;;;;;11.98;8.35;;;8.60;99.90;;;;;;5155187;27;20055;-66
2023/05/25 03:56:50;;;;;;;10.98;8.18;;;8.60;99.90;;;;;;5155755;27;20459;-66
2023/05/25 03:59:17;;;;;;;13.15;8.02;;;8.60;99.90;;;;;;5155465;27;20561;-66
2023/05/25 04:01:43;;;;;;;13.35;9.07;;;8.60;99.90;;;;;;5155098;27;20050;-65
2023/05/25 04:04:09;;;;;;;11.73;8.02;;;8.70;99.90;;;;;;5155600;27;20203;-64
2023/05/25 04:06:36;;;;;;;13.95;9.80;;;8.70;99.90;;;;;;5136791;27;20486;-64
2023/05/25 04:09:03;;;;;;;15.07;8.95;;;8.80;99.90;;;;;;5136396;27;20170;-65
2023/05/25 04:11:29;;;;;;;14.23;7.95;;;8.80;99.90;;;;;;5155584;27;20047;-65
2023/05/25 04:13:55;;;;;;;10.57;8.90;;;8.80;99.90;;;;;;5154722;27;20450;-65
2023/05/25 04:16:21;;;;;;;9.13;7.70;;;8.80;99.90;;;;;;5154683;27;20122;-65
2023/05/25 04:18:46;;;;;;;12.68;8.88;;;8.90;99.90;;;;;;5154667;27;20488;-65
2023/05/25 04:21:12;;;;;;;10.93;7.68;;;8.90;99.90;;;;;;5154726;27;20066;-65
2023/05/25 04:23:38;;;;;;;10.05;7.53;;;9.00;99.90;;;;;;5154630;27;20046;-66
2023/05/25 04:26:04;;;;;;;14.45;9.15;;;8.90;99.90;;;;;;5154678;27;20042;-65
2023/05/25 04:28:31;;;;;;;13.20;8.68;;;9.00;99.90;;;;;;5136255;27;20087;-65
2023/05/25 04:30:57;;;;;;;18.60;9.65;;;9.00;99.90;;;;;;5154575;27;20046;-65
2023/05/25 04:33:23;;;;;;;13.45;8.88;;;9.10;99.90;;;;;;5154458;27;20053;-67
2023/05/25 04:35:49;;;;;;;13.48;9.60;;;9.10;99.90;;;;;;5136388;27;20065;-65
2023/05/25 04:38:19;;;;;;;14.57;9.20;;;9.20;99.90;;;;;;5154440;27;20050;-65
2023/05/25 04:40:47;;;;;;;14.20;9.93;;;9.30;99.90;;;;;;5155082;27;20044;-66
2023/05/25 04:43:16;;;;;;;13.48;9.82;;;9.40;99.90;;;;;;5154725;27;20045;-66
2023/05/25 04:45:44;;;;;;;14.45;9.65;;;9.40;99.90;;;;;;5154674;27;20053;-66
2023/05/25 04:48:11;;;;;;;12.93;10.35;;;9.50;99.90;;;;;;5154231;27;20039;-66
2023/05/25 04:50:39;;;;;;;20.38;10.43;;;9.60;99.90;;;;;;5154748;27;20119;-66
2023/05/25 04:53:05;;;;;;;17.13;9.38;;;9.70;99.90;;;;;;5153623;27;20115;-66
2023/05/25 04:55:31;;;;;;;19.80;9.75;;;9.80;99.90;;;;;;5154273;27;20103;-66
2023/05/25 04:57:57;;;;;;;15.45;10.27;;;9.90;99.90;;;;;;5153987;27;20039;-66
2023/05/25 05:00:23;;;;;;;16.15;9.25;;;10.00;99.90;;;;;;5136228;27;20043;-66
2023/05/25 05:02:50;;;;;;;12.63;9.23;;;10.10;99.90;;;;;;5154527;27;20121;-66
2023/05/25 05:05:16;;;;;;;14.18;9.10;;;10.10;99.90;;;;;;5153837;27;20563;-67
2023/05/25 05:07:42;;;;;;;16.27;11.35;;;10.20;99.90;;;;;;5135761;27;20066;-66
2023/05/25 05:10:08;;;;;;;18.75;9.48;;;10.30;99.90;;;;;;5154139;27;20467;-67
2023/05/25 05:12:34;;;;;;;13.50;9.13;;;10.30;99.90;;;;;;5154050;27;20049;-66
2023/05/25 05:14:59;;;;;;;15.90;9.25;;;10.40;99.90;;;;;;5154030;27;20046;-67
2023/05/25 05:17:26;;;;;;;14.40;9.50;;;10.50;99.90;;;;;;5135450;27;20035;-66
2023/05/25 05:19:52;;;;;;;19.38;9.43;;;10.60;99.90;;;;;;5154639;27;20187;-66
2023/05/25 05:22:18;;;;;;;15.20;7.93;;;10.70;99.90;;;;;;5153972;27;20503;-66
2023/05/25 05:24:44;;;;;;;16.45;9.30;;;10.70;99.90;;;;;;5154009;27;20042;-67
2023/05/25 05:27:13;;;;;;;13.88;8.73;;;10.80;99.90;;;;;;5153881;27;20047;-67
2023/05/25 05:29:39;;;;;;;19.08;9.98;;;10.90;99.90;;;;;;5153604;27;20545;-66
2023/05/25 05:32:06;;;;;;;18.90;9.50;;;11.00;99.90;;;;;;5135646;27;20043;-66
2023/05/25 05:34:32;;;;;;;13.75;8.55;;;11.10;99.90;;;;;;5154033;27;20047;-67
2023/05/25 05:37:00;;;;;;;19.42;10.02;;;11.30;99.90;;;;;;5135081;27;20059;-66
2023/05/25 05:39:27;;;;;;;13.65;8.52;;;11.40;99.90;;;;;;5135291;27;20047;-67
2023/05/25 05:41:53;;;;;;;15.52;8.60;;;11.70;99.90;;;;;;5135334;27;20129;-66
2023/05/25 05:44:22;;;;;;;20.40;9.07;;;11.80;99.90;;;;;;5154016;27;20099;-66
2023/05/25 05:46:48;;;;;;;18.40;8.65;;;11.90;99.90;;;;;;5135569;27;20050;-66
2023/05/25 05:49:14;;;;;;;18.75;8.13;;;12.00;99.90;;;;;;5135736;27;20479;-66
2023/05/25 05:51:39;;;;;;;14.88;8.52;;;12.20;99.90;;;;;;5135342;27;20050;-67
2023/05/25 05:54:05;;;;;;;18.63;8.90;;;12.30;99.90;;;;;;5135621;27;20046;-67
2023/05/25 05:56:31;;;;;;;10.80;7.38;;;12.40;99.90;;;;;;5154231;27;20039;-66
2023/05/25 05:58:57;;;;;;;14.85;7.88;;;12.50;99.90;;;;;;5153794;27;20466;-68
2023/05/25 06:01:24;;;;;;;12.70;8.10;;;12.60;99.90;;;;;;5153475;27;20470;-67
2023/05/25 06:03:51;;;;;;;13.18;6.63;;;12.70;99.90;;;;;;5154124;27;20046;-68
2023/05/25 06:06:17;;;;;;;10.48;6.85;;;12.80;99.90;;;;;;5157773;27;20124;-67
2023/05/25 06:08:43;;;;;;;10.45;6.50;;;12.90;99.90;;;;;;5157649;27;20050;-68
2023/05/25 06:11:08;;;;;;;14.82;6.43;;;13.00;99.90;;;;;;5157147;27;20053;-67
2023/05/25 06:13:34;;;;;;;9.10;6.20;;;13.00;99.90;;;;;;5157133;27;20050;-66
2023/05/25 06:16:00;;;;;;;17.33;5.90;;;13.00;99.90;;;;;;5156898;27;20042;-66
2023/05/25 06:18:25;;;;;;;11.07;5.97;;;13.30;99.90;;;;;;5139026;27;20051;-68
2023/05/25 06:20:51;;;;;;;11.35;6.40;;;13.40;99.90;;;;;;5156656;27;20134;-66
2023/05/25 06:23:17;;;;;;;13.40;5.88;;;13.50;99.90;;;;;;5157382;27;20055;-66
2023/05/25 06:25:44;;;;;;;11.85;5.75;;;13.60;99.90;;;;;;5138976;27;20092;-67
2023/05/25 06:28:10;;;;;;;9.18;4.93;;;14.00;99.90;;;;;;5156825;27;20054;-66
2023/05/25 06:30:35;;;;;;;11.35;4.80;;;14.80;99.90;;;;;;5157181;27;20452;-67
2023/05/25 06:33:02;;;;;;;12.73;5.72;;;15.00;99.90;;;;;;5156651;27;20043;-67
2023/05/25 06:35:28;;;;;;;13.85;4.80;;;14.90;99.90;;;;;;5156980;27;20401;-68
2023/05/25 06:37:54;;;;;;;9.13;4.78;;;14.50;99.90;;;;;;5138259;27;20511;-66
2023/05/25 06:40:21;;;;;;;10.73;5.25;;;14.40;99.90;;;;;;5156912;27;20043;-67
2023/05/25 06:42:46;;;;;;;11.25;4.85;;;14.20;99.90;;;;;;5156532;27;20053;-68
2023/05/25 06:45:12;;;;;;;10.25;5.22;;;14.10;99.90;;;;;;5137774;27;20050;-66
2023/05/25 06:47:38;;;;;;;15.35;5.68;;;14.00;99.90;;;;;;5156636;27;20045;-66
2023/05/25 06:50:05;;;;;;;13.85;5.10;;;14.00;99.90;;;;;;5156697;27;20400;-66
2023/05/25 06:52:30;;;;;;;13.35;5.32;;;14.20;99.90;;;;;;5156290;27;20055;-67
2023/05/25 06:54:56;;;;;;;12.63;5.00;;;14.20;99.90;;;;;;5156640;27;20045;-66
2023/05/25 06:57:23;;;;;;;8.90;4.80;;;14.40;99.90;;;;;;5156354;27;20051;-66
2023/05/25 06:59:49;;;;;;;12.13;5.32;;;14.90;99.90;;;;;;5137648;27;20413;-66
2023/05/25 07:02:15;;;;;;;13.57;6.03;;;15.20;99.90;;;;;;5156006;27;20053;-66
2023/05/25 07:04:40;;;;;;;13.82;6.22;;;15.20;99.90;;;;;;5156347;27;20151;-67
2023/05/25 07:07:06;;;;;;;9.77;4.88;;;15.40;99.90;;;;;;5156207;27;20469;-68
2023/05/25 07:09:32;;;;;;;14.18;4.68;;;15.50;99.90;;;;;;5155860;27;20084;-67
2023/05/25 07:11:58;;;;;;;13.82;4.68;;;15.40;99.90;;;;;;5155798;27;20054;-68
2023/05/25 07:14:24;;;;;;;11.32;4.57;;;15.50;99.90;;;;;;5155382;27;20102;-66
2023/05/25 07:16:50;;;;;;;14.75;4.95;;;15.60;99.90;;;;;;5136783;27;20440;-66
2023/05/25 07:19:15;;;;;;;16.00;5.90;;;16.10;99.90;;;;;;5155515;27;20061;-66
2023/05/25 07:21:41;;;;;;;10.30;5.60;;;16.10;99.90;;;;;;5156231;27;20043;-67
2023/05/25 07:24:07;;;;;;;16.75;6.47;;;16.10;99.90;;;;;;5137436;27;20038;-68
2023/05/25 07:26:35;;;;;;;10.45;4.40;;;15.80;99.90;;;;;;5137114;27;20034;-67
2023/05/25 07:29:02;;;;;;;10.38;5.30;;;15.80;99.90;;;;;;5119866;27;20053;-66
2023/05/25 07:31:29;;;;;;;12.00;5.57;;;16.00;99.90;;;;;;5154924;27;20072;-67
2023/05/25 07:33:55;;;;;;;11.70;4.85;;;15.50;99.90;;;;;;5137059;27;20107;-67
2023/05/25 07:36:20;;;;;;;14.07;4.93;;;15.30;99.90;;;;;;5155378;27;20415;-67
2023/05/25 07:38:46;;;;;;;11.18;5.07;;;15.10;99.90;;;;;;5155318;27;20425;-66
2023/05/25 07:41:12;;;;;;;13.30;4.80;;;15.40;99.90;;;;;;5137080;27;20522;-67
2023/05/25 07:43:38;;;;;;;15.32;5.20;;;15.20;99.90;;;;;;5136820;27;20038;-68
2023/05/25 07:46:04;;;;;;;11.05;4.95;;;15.50;99.90;;;;;;5154959;27;20179;-67
2023/05/25 07:48:30;;;;;;;16.73;4.60;;;16.10;99.90;;;;;;5119280;27;20089;-67
2023/05/25 07:50:56;;;;;;;14.05;4.60;;;16.10;99.90;;;;;;5136641;27;20054;-67
2023/05/25 07:53:22;;;;;;;10.68;5.40;;;16.10;99.90;;;;;;5155042;27;20046;-67
2023/05/25 07:55:47;;;;;;;11.70;5.28;;;16.50;99.90;;;;;;5137164;27;20099;-67
2023/05/25 07:58:13;;;;;;;12.73;4.90;;;17.30;99.90;;;;;;5137180;27;20130;-67
2023/05/25 08:00:39;;;;;;;10.38;4.32;;;18.00;99.30;;;;;;5155524;27;20455;-67
2023/05/25 08:03:04;;;;;;;11.75;4.18;;;18.70;98.80;;;;;;5154874;27;20504;-67
2023/05/25 08:05:30;;;;;;;14.00;5.07;;;18.90;97.60;;;;;;5136283;27;20042;-69
2023/05/25 08:07:56;;;;;;;15.05;5.18;;;18.70;98.00;;;;;;5154661;27;20045;-64
2023/05/25 08:10:22;;;;;;;12.50;5.13;;;18.90;96.20;;;;;;5136286;27;20050;-67
2023/05/25 08:12:48;;;;;;;12.85;4.82;;;20.10;98.30;;;;;;5154901;27;20090;-64
2023/05/25 08:15:14;;;;;;;12.07;5.30;;;20.20;96.50;;;;;;5154557;27;20042;-65
2023/05/25 08:17:40;;;;;;;13.55;5.03;;;20.70;96.20;;;;;;5154703;27;20035;-65
2023/05/25 08:20:07;;;;;;;16.30;4.65;;;20.10;95.50;;;;;;5154637;27;20054;-66
2023/05/25 08:22:34;;;;;;;8.32;4.30;;;19.50;95.50;;;;;;5154481;27;20050;-67
2023/05/25 08:24:59;;;;;;;14.90;5.10;;;19.10;95.80;;;;;;5154474;27;20121;-66
2023/05/25 08:27:25;;;;;;;10.23;4.05;;;18.90;95.00;;;;;;5118207;27;20512;-65
2023/05/25 08:29:51;;;;;;;16.08;6.00;;;18.50;96.70;;;;;;5136146;27;20122;-66
2023/05/25 08:32:16;;;;;;;19.25;6.10;;;17.60;96.20;;;;;;5154326;27;20039;-66
2023/05/25 08:34:42;;;;;;;13.52;5.82;;;17.20;97.90;;;;;;5154366;27;20078;-65
2023/05/25 08:37:08;;;;;;;11.80;5.20;;;16.90;97.50;;;;;;5135666;27;20062;-65
2023/05/25 08:39:33;;;;;;;13.45;5.90;;;16.90;97.90;;;;;;5154042;27;20050;-65
2023/05/25 08:41:59;;;;;;;10.10;4.63;;;17.00;98.00;;;;;;5136525;27;20042;-66
2023/05/25 08:44:27;;;;;;;14.80;5.00;;;18.00;97.90;;;;;;5154335;27;20372;-65
2023/05/25 08:46:55;;;;;;;12.43;5.40;;;18.60;96.20;;;;;;5154438;27;20046;-65
2023/05/25 08:49:22;;;;;;;13.55;5.30;;;19.00;93.40;;;;;;5154247;27;20039;-66
2023/05/25 08:51:49;;;;;;;15.55;4.68;;;18.80;95.00;;;;;;5136360;27;20111;-65
2023/05/25 08:54:18;;;;;;;12.05;5.15;;;18.00;95.00;;;;;;5154206;27;20038;-65
2023/05/25 08:57:15;;;;;;;11.68;4.85;;;17.80;94.90;;;;;;5135757;27;20372;-67
2023/05/25 09:00:09;;;;;;;16.73;5.45;;;17.40;94.70;;;;;;5136395;27;20051;-67
2023/05/25 09:02:53;;;;;;;17.50;5.63;;;17.60;95.40;;;;;;5153984;27;20046;-66
2023/05/25 09:05:21;;;;;;;13.52;4.68;;;17.60;94.70;;;;;;5153907;27;20421;-65
2023/05/25 09:07:48;;;;;;;14.27;6.28;;;18.20;95.60;;;;;;5153873;27;20391;-67
2023/05/25 09:10:14;;;;;;;11.45;4.70;;;18.00;95.70;;;;;;5135676;27;20046;-65
2023/05/25 09:12:41;;;;;;;13.32;4.97;;;17.90;95.30;;;;;;5154048;27;20134;-66
2023/05/25 09:15:09;;;;;;;9.55;4.10;;;17.70;94.20;;;;;;5153914;27;20454;-66
2023/05/25 09:17:35;;;;;;;14.55;5.15;;;17.80;95.20;;;;;;5118933;27;20167;-67
2023/05/25 09:20:01;;;;;;;10.35;5.05;;;17.40;94.20;;;;;;5135482;27;20092;-67
2023/05/25 09:22:27;;;;;;;9.82;4.80;;;17.80;95.60;;;;;;5154062;27;20043;-66
2023/05/25 09:24:53;;;;;;;10.40;4.20;;;18.20;95.20;;;;;;5135464;27;20066;-68
2023/05/25 09:27:22;;;;;;;15.15;4.82;;;18.30;93.90;;;;;;5153436;27;20512;-65
2023/05/25 09:29:51;;;;;;;12.07;4.68;;;17.90;93.40;;;;;;5154297;27;20419;-66
2023/05/25 09:32:18;;;;;;;10.07;5.25;;;17.50;93.60;;;;;;5154248;27;20195;-66
2023/05/25 09:34:47;;;;;;;12.30;5.15;;;17.50;94.40;;;;;;5153811;27;20047;-66
2023/05/25 09:37:15;;;;;;;18.50;5.20;;;17.50;95.10;;;;;;5153843;27;20050;-65
2023/05/25 09:39:44;;;;;;;11.60;4.32;;;17.60;94.60;;;;;;5138020;27;20058;-66
2023/05/25 09:42:10;;;;;;;12.82;4.60;;;17.80;93.90;;;;;;5158369;27;20169;-65
2023/05/25 09:44:37;;;;;;;10.73;4.50;;;18.50;94.10;;;;;;5157706;27;20125;-66
2023/05/25 09:47:04;;;;;;;12.35;5.13;;;19.00;93.80;;;;;;5157184;27;20510;-65
2023/05/25 09:49:30;;;;;;;14.75;5.55;;;18.60;92.90;;;;;;5138807;27;20475;-66
2023/05/25 09:51:56;;;;;;;11.70;5.88;;;18.20;93.70;;;;;;5157647;27;20043;-68
2023/05/25 09:54:22;;;;;;;12.52;5.15;;;17.20;93.30;;;;;;5157967;27;20515;-65
2023/05/25 09:56:48;;;;;;;15.23;5.78;;;17.00;94.90;;;;;;5157998;27;20038;-65
2023/05/25 09:59:14;;;;;;;16.10;5.82;;;16.70;94.80;;;;;;5138835;27;20382;-65
2023/05/25 10:01:40;;;;;;;14.23;5.43;;;16.90;94.80;;;;;;5122183;27;20043;-65
2023/05/25 10:04:06;;;;;;;15.88;6.43;;;16.80;95.10;;;;;;5157641;27;20046;-67
2023/05/25 10:06:32;;;;;;;12.25;5.10;;;16.80;95.50;;;;;;5157302;27;20047;-66
2023/05/25 10:08:59;;;;;;;14.73;5.80;;;16.90;95.40;;;;;;5156866;27;20391;-66
2023/05/25 10:11:27;;;;;;;12.18;5.20;;;17.10;95.80;;;;;;5157821;27;20042;-65
2023/05/25 10:13:54;;;;;;;13.10;4.93;;;18.10;94.40;;;;;;5121729;27;20059;-66
2023/05/25 10:16:26;;;;;;;11.63;4.80;;;18.50;93.90;;;;;;5157091;27;20498;-67
2023/05/25 10:19:11;;;;;;;13.17;5.00;;;18.30;93.30;;;;;;5156952;27;20050;-66
2023/05/25 10:21:38;;;;;;;14.80;4.65;;;17.70;93.40;;;;;;5157646;27;20451;-65
2023/05/25 10:24:12;;;;;;;12.57;5.63;;;17.40;94.70;;;;;;5157045;27;20046;-66
2023/05/25 10:26:41;;;;;;;13.45;6.05;;;17.00;94.50;;;;;;5157015;27;20046;-66
2023/05/25 10:29:08;;;;;;;13.07;5.38;;;16.90;95.30;;;;;;5156739;27;20042;-66
2023/05/25 10:31:36;;;;;;;18.25;5.03;;;17.00;95.20;;;;;;5138599;27;20039;-66
2023/05/25 10:34:02;;;;;;;16.88;5.38;;;17.40;95.40;;;;;;5156698;27;20049;-66
2023/05/25 10:36:30;;;;;;;16.30;5.30;;;17.70;94.20;;;;;;5156513;27;20518;-65
2023/05/25 10:38:56;;;;;;;14.15;6.47;;;17.00;93.40;;;;;;5156713;27;20466;-66
2023/05/25 10:41:22;;;;;;;18.55;6.20;;;16.50;94.80;;;;;;5157017;27;20049;-65
2023/05/25 10:43:48;;;;;;;12.93;4.95;;;16.80;94.80;;;;;;5156414;27;20121;-68
2023/05/25 10:46:15;;;;;;;12.88;4.68;;;17.40;95.30;;;;;;5139260;27;20051;-67
2023/05/25 10:48:47;;;;;;;13.18;4.70;;;17.70;95.20;;;;;;5156532;27;20505;-67
2023/05/25 10:51:13;;;;;;;12.73;5.53;;;17.60;94.00;;;;;;5155361;27;20051;-67
2023/05/25 10:53:44;;;;;;;14.10;5.30;;;17.00;93.50;;;;;;5157289;27;20069;-66
2023/05/25 10:56:12;;;;;;;13.80;4.70;;;17.40;94.30;;;;;;5156440;27;20046;-66
2023/05/25 10:58:43;;;;;;;17.60;5.80;;;17.70;93.70;;;;;;5138406;27;20047;-66
2023/05/25 11:01:11;;;;;;;13.18;5.05;;;17.90;93.30;;;;;;5156311;27;20050;-67
2023/05/25 11:03:43;;;;;;;15.70;5.50;;;17.70;93.10;;;;;;5137624;27;20080;-66
2023/05/25 11:06:20;;;;;;;17.00;6.03;;;17.30;94.40;;;;;;5156104;27;20043;-66
2023/05/25 11:09:00;;;;;;;15.45;4.93;;;17.40;94.70;;;;;;5156335;27;20121;-67
2023/05/25 11:11:41;;;;;;;10.82;5.60;;;17.30;94.90;;;;;;5156790;27;20124;-67
2023/05/25 11:14:26;;;;;;;13.73;6.45;;;17.20;94.40;;;;;;5137707;27;20046;-66
2023/05/25 11:17:10;;;;;;;22.10;7.20;;;17.00;95.50;;;;;;5138163;27;20054;-66
2023/05/25 11:19:54;;;;;;;11.88;5.93;;;17.00;94.80;;;;;;5137323;27;20061;-66
2023/05/25 11:22:31;;;;;;;18.58;7.07;;;16.80;94.80;;;;;;5155585;27;20057;-67
2023/05/25 11:24:58;;;;;;;18.60;6.68;;;17.20;95.80;;;;;;5155586;27;20099;-68
2023/05/25 11:27:29;;;;;;;16.50;6.75;;;16.20;96.10;;;;;;5155446;27;20050;-66
2023/05/25 11:29:57;;;;;;;20.10;6.97;;;16.10;95.90;;;;;;5155525;27;20502;-66
2023/05/25 11:32:24;;;;;;;18.13;6.78;;;16.20;95.90;;;;;;5155625;27;20486;-66
2023/05/25 11:34:56;;;;;;;17.10;7.82;;;16.50;95.90;;;;;;5155822;27;20156;-67
2023/05/25 11:37:25;;;;;;;22.58;7.57;;;16.10;95.90;;;;;;5136474;27;20054;-66
2023/05/25 11:39:51;;;;;;;18.10;7.40;;;15.90;96.10;;;;;;5137024;27;20047;-66
2023/05/25 11:42:24;;;;;;;16.08;6.65;;;15.80;96.50;;;;;;5136854;27;20470;-66
2023/05/25 11:44:50;;;;;;;;;;;15.80;97.00;;;;;;5155891;27;20461;-67
2023/05/25 11:47:21;;;;;;;13.35;7.30;;;16.00;96.40;;;;;;5154997;27;19918;-67
2023/05/25 11:49:48;;;;;;;18.00;6.88;;;16.50;96.80;;;;;;5155373;27;20155;-66
2023/05/25 11:52:19;;;;;;;18.75;6.82;;;16.50;96.50;;;;;;5136821;27;20054;-66
2023/05/25 11:54:45;;;;;;;22.70;7.55;;;16.70;95.60;;;;;;5137329;27;20125;-66
2023/05/25 11:57:15;;;;;;;19.10;6.47;;;16.60;95.10;;;;;;5136773;27;20050;-67
2023/05/25 11:59:48;;;;;;;17.20;6.15;;;16.60;95.00;;;;;;5154881;27;20095;-66
2023/05/25 12:02:14;;;;;;;18.27;7.00;;;16.80;95.10;;;;;;5137083;27;20039;-66
2023/05/25 12:04:41;;;;;;;14.52;6.90;;;16.80;94.70;;;;;;5154857;27;20054;-65
2023/05/25 12:07:07;;;;;;;15.80;7.25;;;16.90;94.20;;;;;;5155158;27;20042;-66
2023/05/25 12:09:35;;;;;;;19.20;6.68;;;16.70;94.80;;;;;;5154542;27;20034;-67
2023/05/25 12:12:03;;;;;;;16.90;6.10;;;16.60;94.50;;;;;;5154756;27;20051;-67
2023/05/25 12:14:29;;;;;;;14.85;5.93;;;16.80;94.60;;;;;;5155082;27;20057;-65
2023/05/25 12:16:56;;;;;;;20.35;6.88;;;17.20;94.50;;;;;;5154459;27;20046;-66
2023/05/25 12:19:22;;;;;;;20.25;6.70;;;17.20;93.50;;;;;;5154883;27;20053;-67
2023/05/25 12:21:50;;;;;;;13.07;5.85;;;17.40;93.90;;;;;;5154852;27;20042;-66
2023/05/25 12:24:17;;;;;;;17.38;5.97;;;17.20;93.80;;;;;;5136375;27;20061;-66
2023/05/25 12:26:55;;;;;;;14.73;5.68;;;17.30;93.80;;;;;;5154330;27;20110;-65
2023/05/25 12:29:20;;;;;;;11.60;5.93;;;17.40;94.50;;;;;;5154232;27;20046;-66
2023/05/25 12:31:46;;;;;;;19.13;6.82;;;17.40;94.60;;;;;;5136215;27;20039;-67
2023/05/25 12:34:16;;;;;;;14.65;5.97;;;16.90;94.50;;;;;;5118798;27;20076;-67
2023/05/25 12:36:51;;;;;;;15.35;6.65;;;16.70;93.80;;;;;;5154790;27;20376;-68
2023/05/25 12:39:30;;;;;;;13.48;7.20;;;16.30;94.60;;;;;;5154746;27;20046;-66
2023/05/25 12:41:58;;;;;;;16.10;5.90;;;16.10;94.50;;;;;;5154665;27;20045;-67
2023/05/25 12:44:31;;;;;;;18.65;6.43;;;16.50;95.10;;;;;;5154455;27;20420;-66
2023/05/25 12:47:10;;;;;;;16.42;7.35;;;16.70;94.60;;;;;;5119632;27;20481;-66